sensor_id;sensor_type;location;lat;lon;timestamp;temperature;humidity
33269;DHT22;19640;50.944;5.260;2023-11-21T00:00:49;9.50;99.90
33269;DHT22;19640;50.944;5.260;2023-11-21T00:03:14;9.50;99.90
33269;DHT22;19640;50.944;5.260;2023-11-21T00:05:41;9.60;99.90
33269;DHT22;19640;50.944;5.260;2023-11-21T00:08:08;9.60;99.90
33269;DHT22;19640;50.944;5.260;2023-11-21T00:10:34;9.50;99.90
33269;DHT22;19640;50.944;5.260;2023-11-21T00:13:00;9.50;99.90
33269;DHT22;19640;50.944;5.260;2023-11-21T00:15:27;9.60;99.90
33269;DHT22;19640;50.944;5.260;2023-11-21T00:17:53;9.60;99.90
33269;DHT22;19640;50.944;5.260;2023-11-21T00:20:18;9.60;99.90
33269;DHT22;19640;50.944;5.260;2023-11-21T00:22:44;9.60;99.90
33269;DHT22;19640;50.944;5.260;2023-11-21T00:25:10;9.30;99.90
33269;DHT22;19640;50.944;5.260;2023-11-21T00:27:36;9.40;99.90
33269;DHT22;19640;50.944;5.260;2023-11-21T00:30:03;9.50;99.90
33269;DHT22;19640;50.944;5.260;2023-11-21T00:32:30;9.40;99.90
33269;DHT22;19640;50.944;5.260;2023-11-21T00:34:55;9.20;99.90
33269;DHT22;19640;50.944;5.260;2023-11-21T00:37:21;9.20;99.90
33269;DHT22;19640;50.944;5.260;2023-11-21T00:39:47;9.30;99.90
33269;DHT22;19640;50.944;5.260;2023-11-21T00:42:12;9.40;99.90
33269;DHT22;19640;50.944;5.260;2023-11-21T00:44:38;9.20;99.90
33269;DHT22;19640;50.944;5.260;2023-11-21T00:47:05;9.10;99.90
33269;DHT22;19640;50.944;5.260;2023-11-21T00:49:30;8.90;99.90
33269;DHT22;19640;50.944;5.260;2023-11-21T00:51:56;8.80;99.90
33269;DHT22;19640;50.944;5.260;2023-11-21T00:54:23;8.80;99.90
33269;DHT22;19640;50.944;5.260;2023-11-21T00:56:49;8.80;99.90
33269;DHT22;19640;50.944;5.260;2023-11-21T00:59:14;8.70;99.90
33269;DHT22;19640;50.944;5.260;2023-11-21T01:01:40;8.90;99.90
33269;DHT22;19640;50.944;5.260;2023-11-21T01:04:06;9.10;99.90
33269;DHT22;19640;50.944;5.260;2023-11-21T01:06:35;9.20;99.90
33269;DHT22;19640;50.944;5.260;2023-11-21T01:09:00;9.40;99.90
33269;DHT22;19640;50.944;5.260;2023-11-21T01:11:26;9.40;99.90
33269;DHT22;19640;50.944;5.260;2023-11-21T01:13:52;9.20;99.90
33269;DHT22;19640;50.944;5.260;2023-11-21T01:16:18;9.10;99.90
33269;DHT22;19640;50.944;5.260;2023-11-21T01:18:44;8.90;99.90
33269;DHT22;19640;50.944;5.260;2023-11-21T01:21:09;9.00;99.90
33269;DHT22;19640;50.944;5.260;2023-11-21T01:23:35;9.10;99.90
33269;DHT22;19640;50.944;5.260;2023-11-21T01:26:01;9.20;99.90
33269;DHT22;19640;50.944;5.260;2023-11-21T01:28:27;9.30;99.90
33269;DHT22;19640;50.944;5.260;2023-11-21T01:30:53;9.30;99.90
33269;DHT22;19640;50.944;5.260;2023-11-21T01:33:23;9.20;99.90
33269;DHT22;19640;50.944;5.260;2023-11-21T01:35:50;9.00;99.90
33269;DHT22;19640;50.944;5.260;2023-11-21T01:38:16;8.90;99.90
33269;DHT22;19640;50.944;5.260;2023-11-21T01:40:43;9.00;99.90
33269;DHT22;19640;50.944;5.260;2023-11-21T01:43:08;9.10;99.90
33269;DHT22;19640;50.944;5.260;2023-11-21T01:45:34;9.00;99.90
33269;DHT22;19640;50.944;5.260;2023-11-21T01:48:00;9.20;99.90
33269;DHT22;19640;50.944;5.260;2023-11-21T01:50:27;9.20;99.90
33269;DHT22;19640;50.944;5.260;2023-11-21T01:52:54;9.20;99.90
33269;DHT22;19640;50.944;5.260;2023-11-21T01:55:20;9.30;99.90
33269;DHT22;19640;50.944;5.260;2023-11-21T01:57:46;9.00;99.90
33269;DHT22;19640;50.944;5.260;2023-11-21T02:00:13;9.10;99.90
33269;DHT22;19640;50.944;5.260;2023-11-21T02:02:46;9.20;99.90
33269;DHT22;19640;50.944;5.260;2023-11-21T02:05:13;9.40;99.90
33269;DHT22;19640;50.944;5.260;2023-11-21T02:07:40;9.50;99.90
33269;DHT22;19640;50.944;5.260;2023-11-21T02:10:07;9.50;99.90
33269;DHT22;19640;50.944;5.260;2023-11-21T02:12:33;9.60;99.90
33269;DHT22;19640;50.944;5.260;2023-11-21T02:15:04;9.60;99.90
33269;DHT22;19640;50.944;5.260;2023-11-21T02:17:43;9.60;99.90
33269;DHT22;19640;50.944;5.260;2023-11-21T02:20:11;9.50;99.90
33269;DHT22;19640;50.944;5.260;2023-11-21T02:22:41;9.50;99.90
33269;DHT22;19640;50.944;5.260;2023-11-21T02:25:08;9.60;99.90
33269;DHT22;19640;50.944;5.260;2023-11-21T02:27:33;9.70;99.90
33269;DHT22;19640;50.944;5.260;2023-11-21T02:29:59;9.80;99.90
33269;DHT22;19640;50.944;5.260;2023-11-21T02:32:26;9.80;99.90
33269;DHT22;19640;50.944;5.260;2023-11-21T02:34:52;9.70;99.90
33269;DHT22;19640;50.944;5.260;2023-11-21T02:37:19;9.80;99.90
33269;DHT22;19640;50.944;5.260;2023-11-21T02:39:45;9.70;99.90
33269;DHT22;19640;50.944;5.260;2023-11-21T02:42:11;9.90;99.90
33269;DHT22;19640;50.944;5.260;2023-11-21T02:44:36;10.00;99.90
33269;DHT22;19640;50.944;5.260;2023-11-21T02:47:02;10.00;99.90
33269;DHT22;19640;50.944;5.260;2023-11-21T02:49:29;10.10;99.90
33269;DHT22;19640;50.944;5.260;2023-11-21T02:51:54;9.80;99.90
33269;DHT22;19640;50.944;5.260;2023-11-21T02:54:21;9.90;99.90
33269;DHT22;19640;50.944;5.260;2023-11-21T02:56:48;10.10;99.90
33269;DHT22;19640;50.944;5.260;2023-11-21T02:59:15;10.00;99.90
33269;DHT22;19640;50.944;5.260;2023-11-21T03:01:41;9.90;99.90
33269;DHT22;19640;50.944;5.260;2023-11-21T03:04:06;9.80;99.90
33269;DHT22;19640;50.944;5.260;2023-11-21T03:06:32;10.00;99.90
33269;DHT22;19640;50.944;5.260;2023-11-21T03:08:59;10.00;99.90
33269;DHT22;19640;50.944;5.260;2023-11-21T03:11:24;10.00;99.90
33269;DHT22;19640;50.944;5.260;2023-11-21T03:13:50;10.20;99.90
33269;DHT22;19640;50.944;5.260;2023-11-21T03:16:16;10.30;99.90
33269;DHT22;19640;50.944;5.260;2023-11-21T03:18:42;10.40;99.90
33269;DHT22;19640;50.944;5.260;2023-11-21T03:21:08;10.40;99.90
33269;DHT22;19640;50.944;5.260;2023-11-21T03:23:35;10.40;99.90
33269;DHT22;19640;50.944;5.260;2023-11-21T03:26:01;10.40;99.90
33269;DHT22;19640;50.944;5.260;2023-11-21T03:28:27;10.20;99.90
33269;DHT22;19640;50.944;5.260;2023-11-21T03:30:53;10.20;99.90
33269;DHT22;19640;50.944;5.260;2023-11-21T03:33:19;10.00;99.90
33269;DHT22;19640;50.944;5.260;2023-11-21T03:35:45;10.10;99.90
33269;DHT22;19640;50.944;5.260;2023-11-21T03:38:11;10.10;99.90
33269;DHT22;19640;50.944;5.260;2023-11-21T03:40:38;10.00;99.90
33269;DHT22;19640;50.944;5.260;2023-11-21T03:43:05;10.10;99.90
33269;DHT22;19640;50.944;5.260;2023-11-21T03:45:31;10.10;99.90
33269;DHT22;19640;50.944;5.260;2023-11-21T03:47:57;10.00;99.90
33269;DHT22;19640;50.944;5.260;2023-11-21T03:50:22;9.90;99.90
33269;DHT22;19640;50.944;5.260;2023-11-21T03:52:48;10.00;99.90
33269;DHT22;19640;50.944;5.260;2023-11-21T03:55:14;10.00;99.90
33269;DHT22;19640;50.944;5.260;2023-11-21T03:57:40;10.00;99.90
33269;DHT22;19640;50.944;5.260;2023-11-21T04:00:06;10.00;99.90
33269;DHT22;19640;50.944;5.260;2023-11-21T04:02:34;9.90;99.90
33269;DHT22;19640;50.944;5.260;2023-11-21T04:05:00;9.90;99.90
33269;DHT22;19640;50.944;5.260;2023-11-21T04:07:26;9.90;99.90
33269;DHT22;19640;50.944;5.260;2023-11-21T04:09:52;9.90;99.90
33269;DHT22;19640;50.944;5.260;2023-11-21T04:12:19;10.00;99.90
33269;DHT22;19640;50.944;5.260;2023-11-21T04:14:45;9.80;99.90
33269;DHT22;19640;50.944;5.260;2023-11-21T04:17:10;10.00;99.90
33269;DHT22;19640;50.944;5.260;2023-11-21T04:19:36;9.90;99.90
33269;DHT22;19640;50.944;5.260;2023-11-21T04:22:01;9.90;99.90
33269;DHT22;19640;50.944;5.260;2023-11-21T04:24:27;10.00;99.90
33269;DHT22;19640;50.944;5.260;2023-11-21T04:26:53;10.10;99.90
33269;DHT22;19640;50.944;5.260;2023-11-21T04:29:19;10.10;99.90
33269;DHT22;19640;50.944;5.260;2023-11-21T04:31:44;10.00;99.90
33269;DHT22;19640;50.944;5.260;2023-11-21T04:34:11;9.90;99.90
33269;DHT22;19640;50.944;5.260;2023-11-21T04:36:36;9.80;99.90
33269;DHT22;19640;50.944;5.260;2023-11-21T04:39:02;9.70;99.90
33269;DHT22;19640;50.944;5.260;2023-11-21T04:41:28;9.70;99.90
33269;DHT22;19640;50.944;5.260;2023-11-21T04:43:54;9.70;99.90
33269;DHT22;19640;50.944;5.260;2023-11-21T04:46:19;9.80;99.90
33269;DHT22;19640;50.944;5.260;2023-11-21T04:48:45;9.70;99.90
33269;DHT22;19640;50.944;5.260;2023-11-21T04:51:10;9.80;99.90
33269;DHT22;19640;50.944;5.260;2023-11-21T04:53:39;9.60;99.90
33269;DHT22;19640;50.944;5.260;2023-11-21T04:56:05;9.30;99.90
33269;DHT22;19640;50.944;5.260;2023-11-21T04:58:31;9.20;99.90
33269;DHT22;19640;50.944;5.260;2023-11-21T05:00:58;9.20;99.90
33269;DHT22;19640;50.944;5.260;2023-11-21T05:03:24;9.30;99.90
33269;DHT22;19640;50.944;5.260;2023-11-21T05:05:49;9.20;99.90
33269;DHT22;19640;50.944;5.260;2023-11-21T05:08:15;9.40;99.90
33269;DHT22;19640;50.944;5.260;2023-11-21T05:10:41;9.60;99.90
33269;DHT22;19640;50.944;5.260;2023-11-21T05:13:06;9.70;99.90
33269;DHT22;19640;50.944;5.260;2023-11-21T05:15:36;9.60;99.90
33269;DHT22;19640;50.944;5.260;2023-11-21T05:18:03;9.40;99.90
33269;DHT22;19640;50.944;5.260;2023-11-21T05:20:28;9.50;99.90
33269;DHT22;19640;50.944;5.260;2023-11-21T05:22:54;9.40;99.90
33269;DHT22;19640;50.944;5.260;2023-11-21T05:25:20;9.30;99.90
33269;DHT22;19640;50.944;5.260;2023-11-21T05:27:46;9.10;99.90
33269;DHT22;19640;50.944;5.260;2023-11-21T05:30:13;9.10;99.90
33269;DHT22;19640;50.944;5.260;2023-11-21T05:32:40;9.30;99.90
33269;DHT22;19640;50.944;5.260;2023-11-21T05:35:10;9.40;99.90
33269;DHT22;19640;50.944;5.260;2023-11-21T05:37:41;9.30;99.90
33269;DHT22;19640;50.944;5.260;2023-11-21T05:40:08;9.20;99.90
33269;DHT22;19640;50.944;5.260;2023-11-21T05:42:34;9.40;99.90
33269;DHT22;19640;50.944;5.260;2023-11-21T05:45:00;9.60;99.90
33269;DHT22;19640;50.944;5.260;2023-11-21T05:47:42;9.60;99.90
33269;DHT22;19640;50.944;5.260;2023-11-21T05:50:09;9.70;99.90
33269;DHT22;19640;50.944;5.260;2023-11-21T05:52:41;9.80;99.90
33269;DHT22;19640;50.944;5.260;2023-11-21T05:55:07;9.80;99.90
33269;DHT22;19640;50.944;5.260;2023-11-21T05:57:34;9.80;99.90
33269;DHT22;19640;50.944;5.260;2023-11-21T06:00:06;9.80;99.90
33269;DHT22;19640;50.944;5.260;2023-11-21T06:02:43;9.80;99.90
33269;DHT22;19640;50.944;5.260;2023-11-21T06:05:10;9.80;99.90
33269;DHT22;19640;50.944;5.260;2023-11-21T06:07:37;9.80;99.90
33269;DHT22;19640;50.944;5.260;2023-11-21T06:10:03;9.90;99.90
33269;DHT22;19640;50.944;5.260;2023-11-21T06:12:32;9.70;99.90
33269;DHT22;19640;50.944;5.260;2023-11-21T06:15:02;9.60;99.90
33269;DHT22;19640;50.944;5.260;2023-11-21T06:17:31;9.60;99.90
33269;DHT22;19640;50.944;5.260;2023-11-21T06:19:57;9.80;99.90
33269;DHT22;19640;50.944;5.260;2023-11-21T06:22:22;9.90;99.90
33269;DHT22;19640;50.944;5.260;2023-11-21T06:24:48;9.90;99.90
33269;DHT22;19640;50.944;5.260;2023-11-21T06:27:14;9.70;99.90
33269;DHT22;19640;50.944;5.260;2023-11-21T06:29:39;9.90;99.90
33269;DHT22;19640;50.944;5.260;2023-11-21T06:32:05;9.40;99.90
33269;DHT22;19640;50.944;5.260;2023-11-21T06:34:31;9.30;99.90
33269;DHT22;19640;50.944;5.260;2023-11-21T06:36:56;9.40;99.90
33269;DHT22;19640;50.944;5.260;2023-11-21T06:39:22;9.50;99.90
33269;DHT22;19640;50.944;5.260;2023-11-21T06:41:51;9.30;99.90
33269;DHT22;19640;50.944;5.260;2023-11-21T06:44:17;9.30;99.90
33269;DHT22;19640;50.944;5.260;2023-11-21T06:46:42;9.20;99.90
33269;DHT22;19640;50.944;5.260;2023-11-21T06:49:08;9.20;99.90
33269;DHT22;19640;50.944;5.260;2023-11-21T06:51:34;9.30;99.90
33269;DHT22;19640;50.944;5.260;2023-11-21T06:54:00;9.20;99.90
33269;DHT22;19640;50.944;5.260;2023-11-21T06:56:25;9.20;99.90
33269;DHT22;19640;50.944;5.260;2023-11-21T06:58:51;9.10;99.90
33269;DHT22;19640;50.944;5.260;2023-11-21T07:01:19;8.90;99.90
33269;DHT22;19640;50.944;5.260;2023-11-21T07:03:45;9.10;99.90
33269;DHT22;19640;50.944;5.260;2023-11-21T07:06:11;9.30;99.90
33269;DHT22;19640;50.944;5.260;2023-11-21T07:08:37;9.40;99.90
33269;DHT22;19640;50.944;5.260;2023-11-21T07:11:04;9.50;99.90
33269;DHT22;19640;50.944;5.260;2023-11-21T07:13:30;9.60;99.90
33269;DHT22;19640;50.944;5.260;2023-11-21T07:15:57;9.60;99.90
33269;DHT22;19640;50.944;5.260;2023-11-21T07:18:23;9.40;99.90
33269;DHT22;19640;50.944;5.260;2023-11-21T07:20:49;9.60;99.90
33269;DHT22;19640;50.944;5.260;2023-11-21T07:23:14;9.60;99.90
33269;DHT22;19640;50.944;5.260;2023-11-21T07:25:41;9.60;99.90
33269;DHT22;19640;50.944;5.260;2023-11-21T07:28:08;9.70;99.90
33269;DHT22;19640;50.944;5.260;2023-11-21T07:30:34;9.80;99.90
33269;DHT22;19640;50.944;5.260;2023-11-21T07:33:00;9.90;99.90
33269;DHT22;19640;50.944;5.260;2023-11-21T07:35:26;9.90;99.90
33269;DHT22;19640;50.944;5.260;2023-11-21T07:37:52;9.90;99.90
33269;DHT22;19640;50.944;5.260;2023-11-21T07:40:17;9.90;99.90
33269;DHT22;19640;50.944;5.260;2023-11-21T07:42:43;10.00;99.90
33269;DHT22;19640;50.944;5.260;2023-11-21T07:45:09;10.00;99.90
33269;DHT22;19640;50.944;5.260;2023-11-21T07:47:35;10.00;99.90
33269;DHT22;19640;50.944;5.260;2023-11-21T07:50:03;10.10;99.90
33269;DHT22;19640;50.944;5.260;2023-11-21T07:52:28;10.10;99.90
33269;DHT22;19640;50.944;5.260;2023-11-21T07:54:54;10.10;99.90
33269;DHT22;19640;50.944;5.260;2023-11-21T07:57:20;10.20;99.90
33269;DHT22;19640;50.944;5.260;2023-11-21T07:59:46;10.20;99.90
33269;DHT22;19640;50.944;5.260;2023-11-21T08:02:11;10.20;99.90
33269;DHT22;19640;50.944;5.260;2023-11-21T08:04:37;10.00;99.90
33269;DHT22;19640;50.944;5.260;2023-11-21T08:07:03;10.00;99.90
33269;DHT22;19640;50.944;5.260;2023-11-21T08:09:29;10.10;99.90
33269;DHT22;19640;50.944;5.260;2023-11-21T08:11:55;10.20;99.90
33269;DHT22;19640;50.944;5.260;2023-11-21T08:14:22;10.30;99.90
33269;DHT22;19640;50.944;5.260;2023-11-21T08:16:51;10.00;99.90
33269;DHT22;19640;50.944;5.260;2023-11-21T08:19:16;9.90;99.90
33269;DHT22;19640;50.944;5.260;2023-11-21T08:21:44;9.90;99.90
33269;DHT22;19640;50.944;5.260;2023-11-21T08:24:11;10.00;99.90
33269;DHT22;19640;50.944;5.260;2023-11-21T08:26:37;9.90;99.90
33269;DHT22;19640;50.944;5.260;2023-11-21T08:29:03;9.90;99.90
33269;DHT22;19640;50.944;5.260;2023-11-21T08:31:29;10.00;99.90
33269;DHT22;19640;50.944;5.260;2023-11-21T08:33:55;10.10;99.90
33269;DHT22;19640;50.944;5.260;2023-11-21T08:36:22;9.90;99.90
33269;DHT22;19640;50.944;5.260;2023-11-21T08:38:49;9.80;99.90
33269;DHT22;19640;50.944;5.260;2023-11-21T08:41:18;10.00;99.90
33269;DHT22;19640;50.944;5.260;2023-11-21T08:43:48;9.90;99.90
33269;DHT22;19640;50.944;5.260;2023-11-21T08:46:14;10.00;99.90
33269;DHT22;19640;50.944;5.260;2023-11-21T08:48:40;10.00;99.90
33269;DHT22;19640;50.944;5.260;2023-11-21T08:51:09;10.20;99.90
33269;DHT22;19640;50.944;5.260;2023-11-21T08:53:35;10.50;99.90
33269;DHT22;19640;50.944;5.260;2023-11-21T08:56:01;10.60;99.90
33269;DHT22;19640;50.944;5.260;2023-11-21T08:58:27;10.50;99.90
33269;DHT22;19640;50.944;5.260;2023-11-21T09:00:53;10.50;99.90
33269;DHT22;19640;50.944;5.260;2023-11-21T09:03:18;10.10;99.90
33269;DHT22;19640;50.944;5.260;2023-11-21T09:05:44;10.00;99.90
33269;DHT22;19640;50.944;5.260;2023-11-21T09:08:10;10.20;99.90
33269;DHT22;19640;50.944;5.260;2023-11-21T09:10:36;10.30;99.90
33269;DHT22;19640;50.944;5.260;2023-11-21T09:13:02;10.40;99.90
33269;DHT22;19640;50.944;5.260;2023-11-21T09:15:28;10.40;99.90
33269;DHT22;19640;50.944;5.260;2023-11-21T09:17:54;10.40;99.90
33269;DHT22;19640;50.944;5.260;2023-11-21T09:20:19;10.70;99.90
33269;DHT22;19640;50.944;5.260;2023-11-21T09:22:48;10.70;99.90
33269;DHT22;19640;50.944;5.260;2023-11-21T09:25:14;10.70;99.90
33269;DHT22;19640;50.944;5.260;2023-11-21T09:27:40;10.70;99.90
33269;DHT22;19640;50.944;5.260;2023-11-21T09:30:07;10.70;99.90
33269;DHT22;19640;50.944;5.260;2023-11-21T09:32:37;10.60;99.90
33269;DHT22;19640;50.944;5.260;2023-11-21T09:35:04;10.60;99.90
33269;DHT22;19640;50.944;5.260;2023-11-21T09:37:30;10.70;99.90
33269;DHT22;19640;50.944;5.260;2023-11-21T09:39:56;10.50;99.90
33269;DHT22;19640;50.944;5.260;2023-11-21T09:42:39;10.50;99.90
33269;DHT22;19640;50.944;5.260;2023-11-21T09:45:28;10.50;99.90
33269;DHT22;19640;50.944;5.260;2023-11-21T09:47:55;10.60;99.90
33269;DHT22;19640;50.944;5.260;2023-11-21T09:50:21;10.70;99.90
33269;DHT22;19640;50.944;5.260;2023-11-21T09:55:18;10.60;99.90
33269;DHT22;19640;50.944;5.260;2023-11-21T09:57:47;10.60;99.90
33269;DHT22;19640;50.944;5.260;2023-11-21T10:00:16;10.70;99.90
33269;DHT22;19640;50.944;5.260;2023-11-21T10:02:43;10.90;99.90
33269;DHT22;19640;50.944;5.260;2023-11-21T10:05:09;11.10;99.90
33269;DHT22;19640;50.944;5.260;2023-11-21T10:07:38;10.90;99.90
33269;DHT22;19640;50.944;5.260;2023-11-21T10:10:05;11.10;99.90
33269;DHT22;19640;50.944;5.260;2023-11-21T10:12:33;11.10;99.90
33269;DHT22;19640;50.944;5.260;2023-11-21T10:15:01;11.30;99.90
33269;DHT22;19640;50.944;5.260;2023-11-21T10:17:28;11.10;99.90
33269;DHT22;19640;50.944;5.260;2023-11-21T10:19:57;11.10;99.90
33269;DHT22;19640;50.944;5.260;2023-11-21T10:22:23;11.20;99.90
33269;DHT22;19640;50.944;5.260;2023-11-21T10:24:49;11.30;99.90
33269;DHT22;19640;50.944;5.260;2023-11-21T10:27:15;11.00;99.90
33269;DHT22;19640;50.944;5.260;2023-11-21T10:29:40;11.10;99.90
33269;DHT22;19640;50.944;5.260;2023-11-21T10:32:07;11.10;99.90
33269;DHT22;19640;50.944;5.260;2023-11-21T10:34:33;11.00;99.90
33269;DHT22;19640;50.944;5.260;2023-11-21T10:37:11;10.90;99.90
33269;DHT22;19640;50.944;5.260;2023-11-21T10:39:37;11.10;99.90
33269;DHT22;19640;50.944;5.260;2023-11-21T10:42:04;11.30;99.90
33269;DHT22;19640;50.944;5.260;2023-11-21T10:44:30;11.60;99.90
33269;DHT22;19640;50.944;5.260;2023-11-21T10:46:55;11.80;99.90
33269;DHT22;19640;50.944;5.260;2023-11-21T10:49:24;11.70;99.90
33269;DHT22;19640;50.944;5.260;2023-11-21T10:51:50;11.60;99.90
33269;DHT22;19640;50.944;5.260;2023-11-21T10:54:23;11.50;99.90
33269;DHT22;19640;50.944;5.260;2023-11-21T10:56:53;11.40;99.90
33269;DHT22;19640;50.944;5.260;2023-11-21T10:59:22;11.60;99.90
33269;DHT22;19640;50.944;5.260;2023-11-21T11:01:50;11.50;99.90
33269;DHT22;19640;50.944;5.260;2023-11-21T11:04:19;11.60;99.90
33269;DHT22;19640;50.944;5.260;2023-11-21T11:06:48;11.80;99.90
33269;DHT22;19640;50.944;5.260;2023-11-21T11:09:16;11.90;99.90
33269;DHT22;19640;50.944;5.260;2023-11-21T11:11:42;12.00;99.90
33269;DHT22;19640;50.944;5.260;2023-11-21T11:14:13;11.90;99.90
33269;DHT22;19640;50.944;5.260;2023-11-21T11:16:40;11.90;99.90
33269;DHT22;19640;50.944;5.260;2023-11-21T11:19:07;12.00;99.90
33269;DHT22;19640;50.944;5.260;2023-11-21T11:21:55;11.90;99.90
33269;DHT22;19640;50.944;5.260;2023-11-21T11:29:47;11.40;99.90
33269;DHT22;19640;50.944;5.260;2023-11-21T11:35:09;12.00;99.90
33269;DHT22;19640;50.944;5.260;2023-11-21T11:37:36;12.30;99.90
33269;DHT22;19640;50.944;5.260;2023-11-21T11:40:06;12.30;99.90
33269;DHT22;19640;50.944;5.260;2023-11-21T11:42:32;12.20;99.90
33269;DHT22;19640;50.944;5.260;2023-11-21T11:44:58;12.20;99.90
33269;DHT22;19640;50.944;5.260;2023-11-21T11:47:26;12.10;99.90
33269;DHT22;19640;50.944;5.260;2023-11-21T11:50:02;12.10;99.90
33269;DHT22;19640;50.944;5.260;2023-11-21T11:52:41;12.10;99.90
33269;DHT22;19640;50.944;5.260;2023-11-21T11:55:11;12.20;99.90
33269;DHT22;19640;50.944;5.260;2023-11-21T11:57:39;12.20;99.90
33269;DHT22;19640;50.944;5.260;2023-11-21T12:00:09;12.20;99.90
33269;DHT22;19640;50.944;5.260;2023-11-21T12:02:42;12.10;99.90
33269;DHT22;19640;50.944;5.260;2023-11-21T12:05:12;12.10;99.90
33269;DHT22;19640;50.944;5.260;2023-11-21T12:08:01;12.10;99.90
33269;DHT22;19640;50.944;5.260;2023-11-21T12:10:33;12.00;99.90
33269;DHT22;19640;50.944;5.260;2023-11-21T12:13:01;12.00;99.90
33269;DHT22;19640;50.944;5.260;2023-11-21T12:15:27;12.10;99.90
33269;DHT22;19640;50.944;5.260;2023-11-21T12:17:57;12.00;99.90
33269;DHT22;19640;50.944;5.260;2023-11-21T12:20:25;12.10;99.90
33269;DHT22;19640;50.944;5.260;2023-11-21T12:22:52;12.10;99.90
33269;DHT22;19640;50.944;5.260;2023-11-21T12:25:23;12.00;99.90
33269;DHT22;19640;50.944;5.260;2023-11-21T12:27:51;12.00;99.90
33269;DHT22;19640;50.944;5.260;2023-11-21T12:30:21;12.00;99.90
33269;DHT22;19640;50.944;5.260;2023-11-21T12:32:52;12.00;99.90
33269;DHT22;19640;50.944;5.260;2023-11-21T12:35:19;12.00;99.90
33269;DHT22;19640;50.944;5.260;2023-11-21T12:37:47;12.00;99.90
33269;DHT22;19640;50.944;5.260;2023-11-21T12:40:14;12.00;99.90
33269;DHT22;19640;50.944;5.260;2023-11-21T12:42:47;12.00;99.90
33269;DHT22;19640;50.944;5.260;2023-11-21T12:47:59;11.90;99.90
33269;DHT22;19640;50.944;5.260;2023-11-21T12:50:27;11.80;99.90
33269;DHT22;19640;50.944;5.260;2023-11-21T12:53:02;11.90;99.90
33269;DHT22;19640;50.944;5.260;2023-11-21T12:55:31;12.00;99.90
33269;DHT22;19640;50.944;5.260;2023-11-21T12:57:57;11.90;99.90
33269;DHT22;19640;50.944;5.260;2023-11-21T13:00:35;11.70;99.90
33269;DHT22;19640;50.944;5.260;2023-11-21T13:03:04;11.80;99.90
33269;DHT22;19640;50.944;5.260;2023-11-21T13:05:36;11.80;99.90
33269;DHT22;19640;50.944;5.260;2023-11-21T13:08:09;12.00;99.90
33269;DHT22;19640;50.944;5.260;2023-11-21T13:10:39;12.10;99.90
33269;DHT22;19640;50.944;5.260;2023-11-21T13:13:09;12.20;99.90
33269;DHT22;19640;50.944;5.260;2023-11-21T13:15:48;12.20;99.90
33269;DHT22;19640;50.944;5.260;2023-11-21T13:18:14;12.20;99.90
33269;DHT22;19640;50.944;5.260;2023-11-21T13:20:41;12.00;99.90
33269;DHT22;19640;50.944;5.260;2023-11-21T13:23:09;11.80;99.90
33269;DHT22;19640;50.944;5.260;2023-11-21T13:25:41;11.80;99.90
33269;DHT22;19640;50.944;5.260;2023-11-21T13:28:07;11.90;99.90
33269;DHT22;19640;50.944;5.260;2023-11-21T13:30:33;11.90;99.90
33269;DHT22;19640;50.944;5.260;2023-11-21T13:33:03;11.70;99.90
33269;DHT22;19640;50.944;5.260;2023-11-21T13:35:36;11.60;99.90
33269;DHT22;19640;50.944;5.260;2023-11-21T13:38:13;11.70;99.90
33269;DHT22;19640;50.944;5.260;2023-11-21T13:40:40;11.50;99.90
33269;DHT22;19640;50.944;5.260;2023-11-21T13:43:10;11.80;99.90
33269;DHT22;19640;50.944;5.260;2023-11-21T13:45:37;11.80;99.90
33269;DHT22;19640;50.944;5.260;2023-11-21T13:48:05;12.10;99.90
33269;DHT22;19640;50.944;5.260;2023-11-21T13:50:38;12.20;99.90
33269;DHT22;19640;50.944;5.260;2023-11-21T13:53:08;12.10;99.90
33269;DHT22;19640;50.944;5.260;2023-11-21T13:55:48;12.10;99.90
33269;DHT22;19640;50.944;5.260;2023-11-21T13:58:15;12.00;99.90
33269;DHT22;19640;50.944;5.260;2023-11-21T14:00:46;12.00;99.90
33269;DHT22;19640;50.944;5.260;2023-11-21T14:03:12;11.90;99.90
33269;DHT22;19640;50.944;5.260;2023-11-21T14:05:49;12.00;99.90
33269;DHT22;19640;50.944;5.260;2023-11-21T14:08:19;12.00;99.90
33269;DHT22;19640;50.944;5.260;2023-11-21T14:10:47;11.90;99.90
33269;DHT22;19640;50.944;5.260;2023-11-21T14:13:23;11.90;99.90
33269;DHT22;19640;50.944;5.260;2023-11-21T14:15:50;11.90;99.90
33269;DHT22;19640;50.944;5.260;2023-11-21T14:18:18;12.10;99.90
33269;DHT22;19640;50.944;5.260;2023-11-21T14:20:52;12.10;99.90
33269;DHT22;19640;50.944;5.260;2023-11-21T14:23:18;12.10;99.90
33269;DHT22;19640;50.944;5.260;2023-11-21T14:25:44;12.10;99.90
33269;DHT22;19640;50.944;5.260;2023-11-21T14:28:09;12.00;99.90
33269;DHT22;19640;50.944;5.260;2023-11-21T14:30:38;12.10;99.90
33269;DHT22;19640;50.944;5.260;2023-11-21T14:33:05;12.20;99.90
33269;DHT22;19640;50.944;5.260;2023-11-21T14:35:31;12.10;99.90
33269;DHT22;19640;50.944;5.260;2023-11-21T14:37:58;12.20;99.90
33269;DHT22;19640;50.944;5.260;2023-11-21T14:40:25;12.30;99.90
33269;DHT22;19640;50.944;5.260;2023-11-21T14:42:51;12.20;99.90
33269;DHT22;19640;50.944;5.260;2023-11-21T14:45:21;12.30;99.90
33269;DHT22;19640;50.944;5.260;2023-11-21T14:47:49;12.20;99.90
33269;DHT22;19640;50.944;5.260;2023-11-21T14:50:26;12.30;99.90
33269;DHT22;19640;50.944;5.260;2023-11-21T14:53:12;12.20;99.90
33269;DHT22;19640;50.944;5.260;2023-11-21T14:55:39;12.10;99.90
33269;DHT22;19640;50.944;5.260;2023-11-21T14:58:20;12.10;99.90
33269;DHT22;19640;50.944;5.260;2023-11-21T15:00:58;12.10;99.90
33269;DHT22;19640;50.944;5.260;2023-11-21T15:03:26;12.00;99.90
33269;DHT22;19640;50.944;5.260;2023-11-21T15:06:10;12.10;99.90
33269;DHT22;19640;50.944;5.260;2023-11-21T15:08:57;12.10;99.90
33269;DHT22;19640;50.944;5.260;2023-11-21T15:11:43;12.00;99.90
33269;DHT22;19640;50.944;5.260;2023-11-21T15:14:09;12.10;99.90
33269;DHT22;19640;50.944;5.260;2023-11-21T15:16:36;12.00;99.90
33269;DHT22;19640;50.944;5.260;2023-11-21T15:19:08;11.90;99.90
33269;DHT22;19640;50.944;5.260;2023-11-21T15:21:36;11.80;99.90
33269;DHT22;19640;50.944;5.260;2023-11-21T15:24:02;11.80;99.90
33269;DHT22;19640;50.944;5.260;2023-11-21T15:26:28;11.80;99.90
33269;DHT22;19640;50.944;5.260;2023-11-21T15:28:54;11.90;99.90
33269;DHT22;19640;50.944;5.260;2023-11-21T15:31:20;11.80;99.90
33269;DHT22;19640;50.944;5.260;2023-11-21T15:33:51;11.80;99.90
33269;DHT22;19640;50.944;5.260;2023-11-21T15:36:18;11.80;99.90
33269;DHT22;19640;50.944;5.260;2023-11-21T15:38:44;11.80;99.90
33269;DHT22;19640;50.944;5.260;2023-11-21T15:41:10;11.80;99.90
33269;DHT22;19640;50.944;5.260;2023-11-21T15:43:37;11.60;99.90
33269;DHT22;19640;50.944;5.260;2023-11-21T15:46:02;11.40;99.90
33269;DHT22;19640;50.944;5.260;2023-11-21T15:48:36;11.30;99.90
33269;DHT22;19640;50.944;5.260;2023-11-21T15:51:04;11.30;99.90
33269;DHT22;19640;50.944;5.260;2023-11-21T15:53:30;11.40;99.90